This is the latest recevied weather packets stored in our database for station/object YU4PTT-8. If no packets are shown the sender has not sent any weather packets the latest 1 day(s).
| Time | Temp. | Humidity | Pressure | Rain* | Wind** | Luminosity | Snow |
|---|---|---|---|---|---|---|---|
| 1778034801 | 12.22° C | 51% | 1004.5 hPa | 0 mm | 1.34 m/s, 158° | - | - |
| 1778032401 | 12.22° C | 48% | 1004.2 hPa | 0 mm | 0 m/s | - | - |
| 1778030031 | 12.22° C | 46% | 1004 hPa | 0 mm | 0.89 m/s, 180° | - | - |
| 1778028201 | 12.78° C | 46% | 1004 hPa | 0 mm | 0.45 m/s, 112° | - | - |
| 1778025831 | 12.78° C | 45% | 1003.9 hPa | 0 mm | 1.34 m/s, 202° | - | - |
| 1778024001 | 12.78° C | 43% | 1004.2 hPa | 0 mm | 0.45 m/s, 180° | - | - |
| 1778021631 | 12.78° C | 44% | 1004.5 hPa | 0 mm | 1.79 m/s, 158° | - | - |
| 1778019801 | 12.78° C | 44% | 1004.6 hPa | 0 mm | 0.45 m/s, 68° | - | - |
| 1778017401 | 13.33° C | 42% | 1004.8 hPa | 0 mm | 0.45 m/s, 112° | - | - |
| 1778015031 | 13.33° C | 41% | 1004.7 hPa | 0 mm | 0.45 m/s, 90° | - | - |
| 1778013202 | 13.89° C | 40% | 1004.7 hPa | 0 mm | 0 m/s | - | - |
| 1778010801 | 13.89° C | 42% | 1004.3 hPa | 0 mm | 0 m/s | - | - |
| 1778008401 | 14.44° C | 43% | 1004.2 hPa | 0 mm | 0 m/s | - | - |
| 1778006001 | 15.56° C | 44% | 1004 hPa | 0 mm | 0 m/s | - | - |
| 1778003631 | 15.56° C | 50% | 1003.7 hPa | 0 mm | 0 m/s | - | - |
| 1778001801 | 16.67° C | 47% | 1003.6 hPa | 0 mm | 0 m/s | - | - |
| 1777999401 | 18.33° C | 47% | 1003.5 hPa | 0 mm | 0 m/s | - | - |
| 1777997031 | 18.33° C | 44% | 1003.6 hPa | 0 mm | 0 m/s | - | - |
| 1777995201 | 18.33° C | 43% | 1003.7 hPa | 0 mm | 0 m/s | - | - |
| 1777992831 | 19.44° C | 43% | 1004 hPa | 0 mm | 0.89 m/s, 0° | - | - |
| 1777991001 | 20.56° C | 40% | 1004.1 hPa | 0 mm | 0 m/s | - | - |
| 1777988601 | 20.56° C | 40% | 1004.3 hPa | 0 mm | 2.24 m/s, 22° | - | - |
| 1777986202 | 20° C | 42% | 1004.8 hPa | 0 mm | 0 m/s | - | - |
| 1777984401 | 20.56° C | 42% | 1005.3 hPa | 0 mm | 0.45 m/s, 90° | - | - |
| 1777982031 | 19.44° C | 43% | 1005.6 hPa | 0 mm | 0.45 m/s, 68° | - | - |
* Rain latest hour (hover to see other rain measurements)
** Current wind speed in m/s (hover to see current wind gust speed)